VOZ579 YSCB-YPAD
Flight info
| Callsign | VOZ579 |
|---|---|
| Flight time | 1h 29m |
| Altitude | 38000 |
| Route | WG Q60 KAKLU |
| Aircraft | B738/M-SAE3DGHIM1RWZ/LB1 |
Departure
| Time | 2026-05-01 10:22 |
|---|---|
| Airport | Canberra Airport (YSCB) |
Arrival
| Time | 2026-05-01 11:52 |
|---|---|
| Airport | Adelaide International Airport (YPAD) |
| Time | Latitude | Longitude | Altitude | Speed | Heading |
|---|---|---|---|---|---|
| 2026-05-01 09:48 | -35.30678 | 149.19098 | 1877 ft | 0 kts | 231° |
| 2026-05-01 10:13 | -35.30670 | 149.19111 | 1879 ft | 2 kts | 231° |
| 2026-05-01 10:13 | -35.30660 | 149.19126 | 1879 ft | 2 kts | 231° |
| 2026-05-01 10:14 | -35.30636 | 149.19153 | 1876 ft | 2 kts | 174° |
| 2026-05-01 10:14 | -35.30627 | 149.19149 | 1879 ft | 1 kts | 139° |
| 2026-05-01 10:14 | -35.30625 | 149.19148 | 1879 ft | 0 kts | 138° |
| 2026-05-01 10:15 | -35.30626 | 149.19148 | 1879 ft | 0 kts | 138° |
| 2026-05-01 10:15 | -35.30631 | 149.19154 | 1875 ft | 2 kts | 134° |
| 2026-05-01 10:15 | -35.30649 | 149.19180 | 1877 ft | 6 kts | 131° |
| 2026-05-01 10:16 | -35.30695 | 149.19231 | 1879 ft | 12 kts | 153° |
| 2026-05-01 10:16 | -35.30803 | 149.19240 | 1879 ft | 18 kts | 180° |
| 2026-05-01 10:16 | -35.31044 | 149.19241 | 1877 ft | 17 kts | 180° |
| 2026-05-01 10:17 | -35.31159 | 149.19240 | 1876 ft | 16 kts | 179° |
| 2026-05-01 10:17 | -35.31371 | 149.19241 | 1879 ft | 9 kts | 180° |
| 2026-05-01 10:17 | -35.31375 | 149.19241 | 1879 ft | 0 kts | 177° |
| 2026-05-01 10:18 | -35.31380 | 149.19241 | 1879 ft | 2 kts | 177° |
| 2026-05-01 10:19 | -35.31414 | 149.19252 | 1879 ft | 9 kts | 157° |
| 2026-05-01 10:19 | -35.31456 | 149.19296 | 1877 ft | 2 kts | 122° |
| 2026-05-01 10:19 | -35.31459 | 149.19304 | 1877 ft | 0 kts | 119° |
| 2026-05-01 10:20 | -35.31461 | 149.19307 | 1878 ft | 2 kts | 119° |
| 2026-05-01 10:20 | -35.31471 | 149.19377 | 1879 ft | 16 kts | 91° |
| 2026-05-01 10:20 | -35.31443 | 149.19445 | 1877 ft | 8 kts | 13° |
| 2026-05-01 10:21 | -35.31427 | 149.19445 | 1876 ft | 0 kts | 359° |
| 2026-05-01 10:21 | -35.31426 | 149.19445 | 1877 ft | 2 kts | 359° |
| 2026-05-01 10:22 | -35.30256 | 149.19448 | 1922 ft | 154 kts | 1° |
| 2026-05-01 10:22 | -35.28027 | 149.19504 | 3697 ft | 164 kts | 7° |
| 2026-05-01 10:23 | -35.26809 | 149.19629 | 4369 ft | 186 kts | 7° |
| 2026-05-01 10:23 | -35.23979 | 149.19987 | 5318 ft | 230 kts | 7° |
| 2026-05-01 10:23 | -35.22357 | 149.20193 | 5946 ft | 240 kts | 6° |
| 2026-05-01 10:24 | -35.18821 | 149.20626 | 7287 ft | 268 kts | 5° |
| 2026-05-01 10:24 | -35.15064 | 149.21043 | 9288 ft | 276 kts | 359° |
| 2026-05-01 10:25 | -35.11675 | 149.18813 | 10713 ft | 309 kts | 308° |
| 2026-05-01 10:25 | -35.10613 | 149.13421 | 11576 ft | 355 kts | 264° |
| 2026-05-01 10:26 | -35.11272 | 149.10495 | 12401 ft | 363 kts | 245° |
| 2026-05-01 10:26 | -35.12733 | 149.07950 | 13282 ft | 369 kts | 232° |
| 2026-05-01 10:26 | -35.16092 | 149.03073 | 14814 ft | 380 kts | 231° |
| 2026-05-01 10:27 | -35.19391 | 148.97996 | 16381 ft | 384 kts | 237° |
| 2026-05-01 10:27 | -35.21893 | 148.92252 | 17815 ft | 388 kts | 261° |
| 2026-05-01 10:28 | -35.22046 | 148.88973 | 18572 ft | 388 kts | 273° |
| 2026-05-01 10:28 | -35.21804 | 148.82325 | 19897 ft | 394 kts | 274° |
| 2026-05-01 10:28 | -35.21664 | 148.78991 | 20597 ft | 395 kts | 274° |
| 2026-05-01 10:29 | -35.21401 | 148.72245 | 21996 ft | 398 kts | 274° |
| 2026-05-01 10:29 | -35.21278 | 148.68854 | 22656 ft | 400 kts | 274° |
| 2026-05-01 10:30 | -35.21041 | 148.62002 | 23895 ft | 406 kts | 274° |
| 2026-05-01 10:30 | -35.20802 | 148.55047 | 24527 ft | 415 kts | 273° |
| 2026-05-01 10:31 | -35.20559 | 148.47995 | 25679 ft | 414 kts | 273° |
| 2026-05-01 10:31 | -35.20311 | 148.40942 | 26662 ft | 418 kts | 273° |
| 2026-05-01 10:32 | -35.20054 | 148.33794 | 27495 ft | 424 kts | 273° |
| 2026-05-01 10:32 | -35.19923 | 148.30183 | 27928 ft | 426 kts | 272° |
| 2026-05-01 10:32 | -35.19656 | 148.22911 | 28751 ft | 431 kts | 272° |
| 2026-05-01 10:33 | -35.19381 | 148.15554 | 29508 ft | 436 kts | 272° |
| 2026-05-01 10:33 | -35.19098 | 148.08114 | 30242 ft | 440 kts | 272° |
| 2026-05-01 10:34 | -35.18956 | 148.04422 | 30649 ft | 440 kts | 272° |
| 2026-05-01 10:34 | -35.18812 | 148.00695 | 31135 ft | 437 kts | 272° |
| 2026-05-01 10:34 | -35.18667 | 147.97005 | 31694 ft | 432 kts | 272° |
| 2026-05-01 10:35 | -35.18379 | 147.89710 | 32611 ft | 428 kts | 272° |
| 2026-05-01 10:35 | -35.18234 | 147.86074 | 33025 ft | 427 kts | 272° |
| 2026-05-01 10:35 | -35.18088 | 147.82455 | 33518 ft | 424 kts | 272° |
| 2026-05-01 10:35 | -35.17943 | 147.78872 | 34052 ft | 420 kts | 272° |
| 2026-05-01 10:36 | -35.17651 | 147.71775 | 34822 ft | 418 kts | 272° |
| 2026-05-01 10:36 | -35.17504 | 147.68216 | 35035 ft | 421 kts | 272° |
| 2026-05-01 10:36 | -35.17355 | 147.64639 | 35281 ft | 422 kts | 273° |
| 2026-05-01 10:37 | -35.17205 | 147.61062 | 35556 ft | 422 kts | 273° |
| 2026-05-01 10:37 | -35.16900 | 147.53879 | 36128 ft | 423 kts | 273° |
| 2026-05-01 10:37 | -35.16747 | 147.50286 | 36316 ft | 425 kts | 273° |
| 2026-05-01 10:38 | -35.16345 | 147.43021 | 36293 ft | 426 kts | 276° |
| 2026-05-01 10:38 | -35.15702 | 147.35867 | 36302 ft | 422 kts | 277° |
| 2026-05-01 10:39 | -35.15028 | 147.28745 | 36303 ft | 421 kts | 277° |
| 2026-05-01 10:39 | -35.14375 | 147.21634 | 36294 ft | 421 kts | 276° |
| 2026-05-01 10:40 | -35.13734 | 147.14522 | 36292 ft | 421 kts | 276° |
| 2026-05-01 10:40 | -35.13093 | 147.07404 | 36294 ft | 421 kts | 276° |
| 2026-05-01 10:41 | -35.12449 | 147.00294 | 36283 ft | 421 kts | 276° |
| 2026-05-01 10:42 | -35.11479 | 146.89686 | 36281 ft | 421 kts | 276° |
| 2026-05-01 10:42 | -35.10825 | 146.82586 | 36285 ft | 420 kts | 277° |
| 2026-05-01 10:43 | -35.10167 | 146.75494 | 36285 ft | 420 kts | 277° |
| 2026-05-01 10:43 | -35.09505 | 146.68396 | 36261 ft | 421 kts | 277° |
| 2026-05-01 10:44 | -35.08837 | 146.61292 | 36267 ft | 421 kts | 277° |
| 2026-05-01 10:44 | -35.08166 | 146.54193 | 36270 ft | 420 kts | 277° |
| 2026-05-01 10:45 | -35.07491 | 146.47094 | 36268 ft | 420 kts | 277° |
| 2026-05-01 10:45 | -35.06812 | 146.40003 | 36267 ft | 420 kts | 277° |
| 2026-05-01 10:46 | -35.06134 | 146.32965 | 36265 ft | 420 kts | 277° |
| 2026-05-01 10:46 | -35.05443 | 146.25837 | 36264 ft | 420 kts | 277° |
| 2026-05-01 10:47 | -35.04757 | 146.18808 | 36259 ft | 420 kts | 277° |
| 2026-05-01 10:47 | -35.04063 | 146.11736 | 36251 ft | 420 kts | 277° |
| 2026-05-01 10:48 | -35.03365 | 146.04660 | 36250 ft | 420 kts | 277° |
| 2026-05-01 10:48 | -35.02662 | 145.97591 | 36251 ft | 420 kts | 278° |
| 2026-05-01 10:49 | -35.01956 | 145.90520 | 36250 ft | 420 kts | 278° |
| 2026-05-01 10:49 | -35.01246 | 145.83453 | 36245 ft | 420 kts | 278° |
| 2026-05-01 10:50 | -35.00531 | 145.76384 | 36250 ft | 420 kts | 278° |
| 2026-05-01 10:50 | -34.99812 | 145.69318 | 36242 ft | 420 kts | 278° |
| 2026-05-01 10:51 | -34.99089 | 145.62248 | 36239 ft | 420 kts | 278° |
| 2026-05-01 10:51 | -34.98485 | 145.56375 | 36237 ft | 420 kts | 278° |
| 2026-05-01 10:52 | -34.97631 | 145.48116 | 36240 ft | 422 kts | 278° |
| 2026-05-01 10:52 | -34.97009 | 145.42151 | 36238 ft | 430 kts | 278° |
| 2026-05-01 10:53 | -34.96260 | 145.34982 | 36214 ft | 422 kts | 278° |
| 2026-05-01 10:53 | -34.95520 | 145.27940 | 36227 ft | 418 kts | 279° |
| 2026-05-01 10:54 | -34.94776 | 145.20909 | 36226 ft | 418 kts | 278° |
| 2026-05-01 10:54 | -34.94028 | 145.13876 | 36217 ft | 418 kts | 278° |
| 2026-05-01 10:55 | -34.93276 | 145.06846 | 36221 ft | 418 kts | 278° |
| 2026-05-01 10:55 | -34.92515 | 144.99814 | 36221 ft | 418 kts | 279° |
| 2026-05-01 10:56 | -34.91749 | 144.92783 | 36220 ft | 418 kts | 279° |
| 2026-05-01 10:56 | -34.90980 | 144.85752 | 36225 ft | 419 kts | 279° |
| 2026-05-01 10:57 | -34.90211 | 144.78763 | 36213 ft | 419 kts | 279° |
| 2026-05-01 10:57 | -34.89434 | 144.71731 | 36217 ft | 419 kts | 279° |
| 2026-05-01 10:58 | -34.88652 | 144.64695 | 36206 ft | 419 kts | 279° |
| 2026-05-01 10:58 | -34.87867 | 144.57662 | 36206 ft | 419 kts | 279° |
| 2026-05-01 10:59 | -34.87077 | 144.50627 | 36204 ft | 419 kts | 279° |
| 2026-05-01 10:59 | -34.86284 | 144.43608 | 36198 ft | 418 kts | 279° |
| 2026-05-01 11:00 | -34.85488 | 144.36592 | 36197 ft | 418 kts | 279° |
| 2026-05-01 11:00 | -34.84694 | 144.29630 | 36202 ft | 418 kts | 279° |
| 2026-05-01 11:01 | -34.83892 | 144.22633 | 36204 ft | 417 kts | 279° |
| 2026-05-01 11:01 | -34.83085 | 144.15638 | 36196 ft | 417 kts | 279° |
| 2026-05-01 11:02 | -34.82276 | 144.08653 | 36193 ft | 417 kts | 279° |
| 2026-05-01 11:02 | -34.81463 | 144.01671 | 36186 ft | 416 kts | 279° |
| 2026-05-01 11:03 | -34.80647 | 143.94700 | 36187 ft | 416 kts | 279° |
| 2026-05-01 11:03 | -34.79826 | 143.87727 | 36184 ft | 416 kts | 279° |
| 2026-05-01 11:04 | -34.79003 | 143.80763 | 36184 ft | 416 kts | 279° |
| 2026-05-01 11:04 | -34.78175 | 143.73795 | 36174 ft | 416 kts | 280° |
| 2026-05-01 11:05 | -34.77343 | 143.66830 | 36181 ft | 416 kts | 280° |
| 2026-05-01 11:05 | -34.76507 | 143.59867 | 36182 ft | 416 kts | 280° |
| 2026-05-01 11:06 | -34.75666 | 143.52897 | 36178 ft | 417 kts | 280° |
| 2026-05-01 11:06 | -34.74820 | 143.45917 | 36183 ft | 415 kts | 280° |
| 2026-05-01 11:07 | -34.73575 | 143.35692 | 36181 ft | 408 kts | 280° |
| 2026-05-01 11:07 | -34.72736 | 143.28859 | 36176 ft | 409 kts | 280° |
| 2026-05-01 11:08 | -34.71891 | 143.22008 | 36179 ft | 410 kts | 280° |
| 2026-05-01 11:09 | -34.70616 | 143.11729 | 36170 ft | 410 kts | 280° |
| 2026-05-01 11:09 | -34.69761 | 143.04869 | 36168 ft | 411 kts | 280° |
| 2026-05-01 11:10 | -34.68469 | 142.94575 | 36170 ft | 411 kts | 281° |
| 2026-05-01 11:10 | -34.67602 | 142.87704 | 36165 ft | 411 kts | 281° |
| 2026-05-01 11:11 | -34.66731 | 142.80829 | 36160 ft | 412 kts | 281° |
| 2026-05-01 11:11 | -34.65857 | 142.73962 | 36166 ft | 411 kts | 281° |
| 2026-05-01 11:12 | -34.64979 | 142.67094 | 36156 ft | 411 kts | 281° |
| 2026-05-01 11:12 | -34.64097 | 142.60228 | 36154 ft | 411 kts | 281° |
| 2026-05-01 11:13 | -34.63559 | 142.53317 | 36144 ft | 414 kts | 270° |
| 2026-05-01 11:13 | -34.63981 | 142.46337 | 36152 ft | 415 kts | 269° |
| 2026-05-01 11:14 | -34.64407 | 142.39404 | 36146 ft | 414 kts | 269° |
| 2026-05-01 11:14 | -34.64813 | 142.32423 | 36147 ft | 414 kts | 269° |
| 2026-05-01 11:15 | -34.65204 | 142.25442 | 36149 ft | 415 kts | 269° |
| 2026-05-01 11:15 | -34.65588 | 142.18450 | 36142 ft | 415 kts | 269° |
| 2026-05-01 11:16 | -34.65968 | 142.11457 | 36140 ft | 415 kts | 269° |
| 2026-05-01 11:16 | -34.66344 | 142.04468 | 36148 ft | 415 kts | 269° |
| 2026-05-01 11:17 | -34.66717 | 141.97477 | 36136 ft | 415 kts | 269° |
| 2026-05-01 11:17 | -34.67085 | 141.90481 | 36133 ft | 415 kts | 269° |
| 2026-05-01 11:18 | -34.67449 | 141.83500 | 36130 ft | 414 kts | 270° |
| 2026-05-01 11:18 | -34.67809 | 141.76508 | 36133 ft | 415 kts | 270° |
| 2026-05-01 11:19 | -34.68166 | 141.69513 | 36124 ft | 415 kts | 270° |
| 2026-05-01 11:19 | -34.68518 | 141.62521 | 36126 ft | 415 kts | 270° |
| 2026-05-01 11:20 | -34.68864 | 141.55574 | 36122 ft | 415 kts | 270° |
| 2026-05-01 11:20 | -34.69208 | 141.48582 | 36116 ft | 415 kts | 270° |
| 2026-05-01 11:21 | -34.69549 | 141.41579 | 36117 ft | 415 kts | 270° |
| 2026-05-01 11:21 | -34.69885 | 141.34588 | 36121 ft | 415 kts | 270° |
| 2026-05-01 11:22 | -34.70218 | 141.27590 | 36124 ft | 415 kts | 270° |
| 2026-05-01 11:22 | -34.70546 | 141.20592 | 36110 ft | 415 kts | 270° |
| 2026-05-01 11:23 | -34.70871 | 141.13589 | 36102 ft | 415 kts | 270° |
| 2026-05-01 11:23 | -34.71191 | 141.06592 | 36109 ft | 415 kts | 270° |
| 2026-05-01 11:24 | -34.71506 | 140.99631 | 36098 ft | 414 kts | 270° |
| 2026-05-01 11:25 | -34.71973 | 140.89135 | 36103 ft | 414 kts | 270° |
| 2026-05-01 11:25 | -34.72431 | 140.78641 | 36092 ft | 414 kts | 270° |
| 2026-05-01 11:26 | -34.72882 | 140.68065 | 34994 ft | 417 kts | 270° |
| 2026-05-01 11:26 | -34.73032 | 140.64582 | 34518 ft | 407 kts | 271° |
| 2026-05-01 11:27 | -34.73176 | 140.61191 | 33895 ft | 398 kts | 271° |
| 2026-05-01 11:27 | -34.73316 | 140.57851 | 33205 ft | 392 kts | 271° |
| 2026-05-01 11:27 | -34.73450 | 140.54574 | 32568 ft | 396 kts | 271° |
| 2026-05-01 11:27 | -34.73586 | 140.51178 | 32038 ft | 408 kts | 271° |
| 2026-05-01 11:28 | -34.73727 | 140.47680 | 31559 ft | 420 kts | 271° |
| 2026-05-01 11:28 | -34.73874 | 140.44158 | 31044 ft | 410 kts | 271° |
| 2026-05-01 11:28 | -34.74020 | 140.40746 | 30562 ft | 398 kts | 271° |
| 2026-05-01 11:29 | -34.74295 | 140.34201 | 29577 ft | 382 kts | 272° |
| 2026-05-01 11:29 | -34.74425 | 140.30936 | 29093 ft | 391 kts | 272° |
| 2026-05-01 11:29 | -34.74687 | 140.24160 | 28076 ft | 398 kts | 271° |
| 2026-05-01 11:30 | -34.74822 | 140.20856 | 27605 ft | 385 kts | 272° |
| 2026-05-01 11:30 | -34.74952 | 140.17647 | 27138 ft | 375 kts | 272° |
| 2026-05-01 11:30 | -34.75078 | 140.14523 | 26677 ft | 367 kts | 272° |
| 2026-05-01 11:30 | -34.75197 | 140.11422 | 26247 ft | 371 kts | 272° |
| 2026-05-01 11:31 | -34.75312 | 140.08252 | 25817 ft | 390 kts | 272° |
| 2026-05-01 11:31 | -34.75432 | 140.04931 | 25328 ft | 392 kts | 272° |
| 2026-05-01 11:31 | -34.75559 | 140.01637 | 24842 ft | 387 kts | 272° |
| 2026-05-01 11:31 | -34.75684 | 139.98389 | 24373 ft | 382 kts | 272° |
| 2026-05-01 11:32 | -34.75808 | 139.95176 | 23892 ft | 378 kts | 273° |
| 2026-05-01 11:32 | -34.75928 | 139.91997 | 23384 ft | 375 kts | 273° |
| 2026-05-01 11:32 | -34.76045 | 139.88849 | 22868 ft | 370 kts | 273° |
| 2026-05-01 11:32 | -34.76159 | 139.85742 | 22386 ft | 366 kts | 273° |
| 2026-05-01 11:33 | -34.76271 | 139.82662 | 21928 ft | 363 kts | 273° |
| 2026-05-01 11:33 | -34.76381 | 139.79608 | 21479 ft | 360 kts | 273° |
| 2026-05-01 11:33 | -34.76489 | 139.76557 | 21032 ft | 363 kts | 273° |
| 2026-05-01 11:33 | -34.76596 | 139.73460 | 20595 ft | 373 kts | 273° |
| 2026-05-01 11:34 | -34.76703 | 139.70177 | 20135 ft | 404 kts | 272° |
| 2026-05-01 11:34 | -34.76818 | 139.66645 | 19597 ft | 429 kts | 272° |
| 2026-05-01 11:34 | -34.76946 | 139.63007 | 19046 ft | 431 kts | 272° |
| 2026-05-01 11:34 | -34.77080 | 139.59373 | 18496 ft | 428 kts | 272° |
| 2026-05-01 11:35 | -34.77210 | 139.55768 | 17901 ft | 425 kts | 272° |
| 2026-05-01 11:35 | -34.77335 | 139.52187 | 17345 ft | 422 kts | 272° |
| 2026-05-01 11:35 | -34.77456 | 139.48637 | 16815 ft | 419 kts | 272° |
| 2026-05-01 11:35 | -34.77573 | 139.45112 | 16286 ft | 416 kts | 272° |
| 2026-05-01 11:36 | -34.77761 | 139.41605 | 15760 ft | 417 kts | 266° |
| 2026-05-01 11:36 | -34.78680 | 139.38228 | 15259 ft | 425 kts | 248° |
| 2026-05-01 11:36 | -34.79992 | 139.35021 | 14770 ft | 422 kts | 249° |
| 2026-05-01 11:36 | -34.81263 | 139.31809 | 14252 ft | 421 kts | 249° |
| 2026-05-01 11:37 | -34.82489 | 139.28641 | 13730 ft | 418 kts | 249° |
| 2026-05-01 11:37 | -34.83708 | 139.25448 | 13174 ft | 415 kts | 249° |
| 2026-05-01 11:37 | -34.84914 | 139.22269 | 12646 ft | 410 kts | 249° |
| 2026-05-01 11:37 | -34.86100 | 139.19134 | 12148 ft | 406 kts | 249° |
| 2026-05-01 11:38 | -34.87275 | 139.16024 | 11651 ft | 402 kts | 249° |
| 2026-05-01 11:38 | -34.88426 | 139.12984 | 11173 ft | 387 kts | 249° |
| 2026-05-01 11:38 | -34.89526 | 139.10081 | 10712 ft | 368 kts | 249° |
| 2026-05-01 11:38 | -34.90568 | 139.07332 | 10514 ft | 348 kts | 249° |
| 2026-05-01 11:39 | -34.91573 | 139.04668 | 10376 ft | 347 kts | 250° |
| 2026-05-01 11:39 | -34.92586 | 139.01962 | 10234 ft | 354 kts | 250° |
| 2026-05-01 11:39 | -34.93612 | 138.99226 | 10084 ft | 355 kts | 249° |
| 2026-05-01 11:39 | -34.94637 | 138.96499 | 9968 ft | 348 kts | 249° |
| 2026-05-01 11:40 | -34.95619 | 138.93898 | 9956 ft | 329 kts | 250° |
| 2026-05-01 11:40 | -34.96244 | 138.92244 | 9896 ft | 320 kts | 250° |
| 2026-05-01 11:40 | -34.97450 | 138.89041 | 9764 ft | 302 kts | 250° |
| 2026-05-01 11:40 | -34.98020 | 138.87527 | 9702 ft | 290 kts | 250° |
| 2026-05-01 11:41 | -34.98843 | 138.85333 | 9347 ft | 282 kts | 251° |
| 2026-05-01 11:41 | -34.99655 | 138.83157 | 8825 ft | 281 kts | 251° |
| 2026-05-01 11:41 | -35.00461 | 138.80997 | 8320 ft | 279 kts | 251° |
| 2026-05-01 11:41 | -35.01265 | 138.78843 | 7882 ft | 280 kts | 251° |
| 2026-05-01 11:42 | -35.02069 | 138.76687 | 7616 ft | 277 kts | 251° |
| 2026-05-01 11:42 | -35.02864 | 138.74561 | 7329 ft | 274 kts | 251° |
| 2026-05-01 11:42 | -35.03646 | 138.72468 | 6916 ft | 270 kts | 251° |
| 2026-05-01 11:42 | -35.04427 | 138.70371 | 6353 ft | 273 kts | 251° |
| 2026-05-01 11:43 | -35.05210 | 138.68269 | 5985 ft | 273 kts | 251° |
| 2026-05-01 11:43 | -35.05998 | 138.66153 | 5663 ft | 273 kts | 251° |
| 2026-05-01 11:43 | -35.06783 | 138.64052 | 5362 ft | 271 kts | 251° |
| 2026-05-01 11:44 | -35.08311 | 138.59938 | 4929 ft | 262 kts | 252° |
| 2026-05-01 11:44 | -35.09067 | 138.57911 | 4787 ft | 256 kts | 252° |
| 2026-05-01 11:44 | -35.09800 | 138.55942 | 4531 ft | 254 kts | 252° |
| 2026-05-01 11:44 | -35.10519 | 138.54009 | 4277 ft | 253 kts | 252° |
| 2026-05-01 11:45 | -35.11242 | 138.52059 | 4105 ft | 251 kts | 252° |
| 2026-05-01 11:45 | -35.11963 | 138.50120 | 3993 ft | 249 kts | 252° |
| 2026-05-01 11:45 | -35.12456 | 138.48182 | 3850 ft | 228 kts | 278° |
| 2026-05-01 11:45 | -35.12266 | 138.46342 | 3787 ft | 215 kts | 289° |
| 2026-05-01 11:46 | -35.11945 | 138.44579 | 3687 ft | 207 kts | 297° |
| 2026-05-01 11:46 | -35.11160 | 138.43256 | 3532 ft | 186 kts | 327° |
| 2026-05-01 11:46 | -35.10076 | 138.42438 | 3153 ft | 182 kts | 341° |
| 2026-05-01 11:46 | -35.08932 | 138.41856 | 2963 ft | 175 kts | 341° |
| 2026-05-01 11:47 | -35.07793 | 138.41614 | 2839 ft | 163 kts | 5° |
| 2026-05-01 11:47 | -35.06700 | 138.41835 | 2670 ft | 155 kts | 9° |
| 2026-05-01 11:47 | -35.05660 | 138.42054 | 2474 ft | 148 kts | 8° |
| 2026-05-01 11:47 | -35.04672 | 138.42265 | 2319 ft | 141 kts | 9° |
| 2026-05-01 11:48 | -35.03726 | 138.42464 | 2172 ft | 134 kts | 11° |
| 2026-05-01 11:48 | -35.02836 | 138.42807 | 2011 ft | 136 kts | 19° |
| 2026-05-01 11:48 | -35.01991 | 138.43338 | 1859 ft | 137 kts | 26° |
| 2026-05-01 11:48 | -35.01246 | 138.44027 | 1658 ft | 133 kts | 37° |
| 2026-05-01 11:49 | -35.00603 | 138.44841 | 1495 ft | 134 kts | 42° |
| 2026-05-01 11:49 | -34.99980 | 138.45718 | 1363 ft | 141 kts | 44° |
| 2026-05-01 11:49 | -34.99358 | 138.46620 | 1182 ft | 139 kts | 46° |
| 2026-05-01 11:49 | -34.98747 | 138.47509 | 1000 ft | 139 kts | 45° |
| 2026-05-01 11:50 | -34.98156 | 138.48371 | 797 ft | 127 kts | 46° |
| 2026-05-01 11:50 | -34.97585 | 138.49201 | 631 ft | 131 kts | 48° |
| 2026-05-01 11:50 | -34.97006 | 138.50057 | 474 ft | 131 kts | 46° |
| 2026-05-01 11:50 | -34.96416 | 138.50902 | 279 ft | 130 kts | 45° |
| 2026-05-01 11:51 | -34.95848 | 138.51721 | 98 ft | 121 kts | 46° |
| 2026-05-01 11:51 | -34.95317 | 138.52498 | 26 ft | 109 kts | 51° |
| 2026-05-01 11:51 | -34.94905 | 138.53101 | 26 ft | 76 kts | 50° |
| 2026-05-01 11:51 | -34.94614 | 138.53525 | 26 ft | 58 kts | 50° |
| 2026-05-01 11:52 | -34.94379 | 138.53866 | 25 ft | 43 kts | 50° |
| 2026-05-01 11:52 | -34.94216 | 138.54104 | 27 ft | 34 kts | 50° |
| 2026-05-01 11:52 | -34.94093 | 138.54259 | 26 ft | 19 kts | 22° |
| 2026-05-01 11:52 | -34.93985 | 138.54230 | 28 ft | 11 kts | 320° |
| 2026-05-01 11:53 | -34.93927 | 138.54172 | 26 ft | 8 kts | 321° |
| 2026-05-01 11:53 | -34.93891 | 138.54133 | 26 ft | 7 kts | 307° |
| 2026-05-01 11:53 | -34.93862 | 138.54089 | 28 ft | 7 kts | 320° |
| 2026-05-01 11:53 | -34.93842 | 138.54068 | 25 ft | 0 kts | 320° |
| 2026-05-01 11:54 | -34.93834 | 138.54060 | 25 ft | 3 kts | 321° |
| 2026-05-01 11:54 | -34.93815 | 138.54041 | 29 ft | 4 kts | 321° |
| 2026-05-01 11:54 | -34.93806 | 138.54032 | 27 ft | 0 kts | 321° |